Time;durP1;ratioP1;P1;durP2;ratioP2;P2;SDS_P1;SDS_P2;PMS_P1;PMS_P2;Temp;Humidity;BMP_temperature;BMP_pressure;BME280_temperature;BME280_humidity;BME280_pressure;Samples;Min_cycle;Max_cycle;Signal;HPM_P1;HPM_P2
2022/09/20 00:01:27;;;;;;;2.25;1.00;;;;;;;10.72;77.78;98695.59;4875650;29;20426;-81
2022/09/20 00:03:55;;;;;;;1.65;1.00;;;;;;;11.05;77.68;98760.63;4873210;29;20072;-81
2022/09/20 00:06:25;;;;;;;1.33;1.00;;;;;;;10.85;77.80;98725.59;4889048;29;20063;-83
2022/09/20 00:08:51;;;;;;;2.65;0.90;;;;;;;10.81;77.56;98699.72;4875306;29;20048;-84
2022/09/20 00:11:23;;;;;;;1.85;0.90;;;;;;;11.06;77.54;98764.94;4873439;29;20041;-83
2022/09/20 00:13:51;;;;;;;1.30;1.05;;;;;;;10.75;77.27;98734.53;4876835;29;20523;-80
2022/09/20 00:16:22;;;;;;;0.98;0.88;;;;;;;10.69;77.00;98743.38;4874166;29;20056;-83
2022/09/20 00:18:53;;;;;;;2.30;1.00;;;;;;;10.80;77.52;98782.13;4871736;29;20543;-83
2022/09/20 00:21:23;;;;;;;1.17;0.90;;;;;;;10.49;77.20;98743.03;4890045;29;20049;-81
2022/09/20 00:23:51;;;;;;;2.45;1.00;;;;;;;10.69;77.49;98765.94;4873920;29;20505;-84
2022/09/20 00:26:17;;;;;;;1.42;0.90;;;;;;;10.75;77.41;98770.13;4872981;29;20048;-81
2022/09/20 00:28:45;;;;;;;1.45;1.10;;;;;;;10.89;77.53;98801.00;4857630;29;20045;-82
2022/09/20 00:31:12;;;;;;;1.00;0.80;;;;;;;10.79;77.25;98772.59;4887146;29;20045;-81
2022/09/20 00:36:25;;;;;;;2.28;0.98;;;;;;;10.69;77.00;98748.56;4871259;29;20053;-83
2022/09/20 00:38:59;;;;;;;1.30;1.10;;;;;;;10.82;76.82;98790.75;4878917;29;20043;-82
2022/09/20 00:41:25;;;;;;;1.30;1.00;;;;;;;10.80;76.92;98791.69;4886170;29;20042;-82
2022/09/20 00:43:52;;;;;;;1.50;1.05;;;;;;;10.67;76.68;98765.97;4887364;29;20061;-83
2022/09/20 00:46:23;;;;;;;2.20;0.90;;;;;;;10.72;77.09;98776.25;4873380;29;20182;-82
2022/09/20 00:48:58;;;;;;;3.35;1.10;;;;;;;10.43;76.60;98750.97;4893039;29;20057;-81
2022/09/20 00:51:28;;;;;;;2.63;1.05;;;;;;;10.48;76.73;98754.31;4875206;29;20458;-80
2022/09/20 00:53:58;;;;;;;1.27;1.00;;;;;;;10.45;76.92;98770.88;4872571;29;20087;-83
2022/09/20 00:56:30;;;;;;;2.10;1.23;;;;;;;10.41;76.95;98771.84;4887709;29;20139;-84
2022/09/20 00:59:11;;;;;;;1.08;0.98;;;;;;;10.34;77.04;98772.84;4871825;29;20068;-83
2022/09/20 01:01:38;;;;;;;1.52;1.00;;;;;;;10.53;76.80;98825.28;4872061;29;20053;-82
2022/09/20 01:04:04;;;;;;;1.63;1.20;;;;;;;10.16;77.19;98782.78;4871827;29;20059;-81
2022/09/20 01:06:32;;;;;;;3.53;1.10;;;;;;;10.29;77.03;98796.34;4870241;29;20091;-84
2022/09/20 01:09:01;;;;;;;1.75;1.00;;;;;;;10.27;77.17;98782.53;4873341;29;20060;-85
2022/09/20 01:11:29;;;;;;;0.77;0.73;;;;;;;10.44;77.12;98823.78;4871595;29;20049;-83
2022/09/20 01:13:56;;;;;;;1.58;1.20;;;;;;;10.54;77.18;98811.41;4871549;29;20112;-83
2022/09/20 01:16:24;;;;;;;2.42;0.90;;;;;;;10.66;77.07;98812.84;4873095;29;20069;-82
2022/09/20 01:18:52;;;;;;;1.10;1.00;;;;;;;10.72;77.34;98823.06;4875060;29;20413;-83
2022/09/20 01:21:19;;;;;;;2.30;1.30;;;;;;;10.66;76.71;98805.03;4892632;29;20049;-79
2022/09/20 01:23:59;;;;;;;2.65;1.10;;;;;;;10.88;76.73;98846.97;4877348;29;20476;-81
2022/09/20 01:26:42;;;;;;;2.00;1.08;;;;;;;10.86;76.56;98848.75;4882062;29;20156;-81
2022/09/20 01:29:33;;;;;;;1.33;0.93;;;;;;;10.58;76.90;98806.97;4884816;29;20109;-81
2022/09/20 01:32:04;;;;;;;4.60;1.30;;;;;;;10.65;76.95;98829.34;4882667;29;20045;-82
2022/09/20 01:34:36;;;;;;;3.85;1.10;;;;;;;10.90;76.83;98852.16;4888002;29;20044;-80
2022/09/20 01:37:08;;;;;;;1.80;1.00;;;;;;;10.66;77.01;98821.50;4870143;29;20098;-81
2022/09/20 01:39:48;;;;;;;3.70;1.20;;;;;;;10.98;77.03;98871.88;4872370;29;20061;-82
2022/09/20 01:42:14;;;;;;;2.25;1.10;;;;;;;10.43;76.49;98785.66;4871103;29;20056;-82
2022/09/20 01:45:02;;;;;;;1.23;0.88;;;;;;;11.07;76.90;98880.34;4873877;29;20132;-82
2022/09/20 01:48:29;;;;;;;1.70;1.00;;;;;;;11.11;76.46;98882.84;4872568;29;20045;-82
2022/09/20 01:51:17;;;;;;;1.15;1.05;;;;;;;11.15;76.67;98886.22;4833521;29;20455;-82
2022/09/20 01:54:05;;;;;;;2.13;0.93;;;;;;;11.18;76.32;98890.47;4856978;29;20041;-82
2022/09/20 01:56:53;;;;;;;3.67;1.30;;;;;;;11.11;76.14;98875.03;4857196;29;20063;-82
2022/09/20 01:59:43;;;;;;;3.80;1.20;;;;;;;10.68;76.43;98813.66;4871444;29;20406;-83
2022/09/20 02:02:48;;;;;;;2.00;1.27;;;;;;;11.01;76.40;98870.94;4876272;29;20555;-83
2022/09/20 02:05:45;;;;;;;2.47;0.93;;;;;;;11.26;76.39;98902.41;4889266;29;20051;-82
2022/09/20 02:08:42;;;;;;;1.05;0.90;;;;;;;11.26;76.34;98905.00;4868176;29;20049;-82
2022/09/20 02:11:16;;;;;;;1.55;1.00;;;;;;;11.17;76.13;98889.63;4878129;29;20044;-80
2022/09/20 02:14:15;;;;;;;4.60;1.50;;;;;;;11.25;76.02;98898.13;4878627;29;20057;-80
2022/09/20 02:16:48;;;;;;;2.53;1.15;;;;;;;11.29;76.00;98904.09;4849039;29;20056;-82
2022/09/20 02:19:32;;;;;;;0.80;0.80;;;;;;;11.12;76.12;98899.31;4882440;29;20049;-81
2022/09/20 02:22:30;;;;;;;1.10;0.93;;;;;;;11.14;75.88;98906.19;4878748;29;20108;-83
2022/09/20 02:25:35;;;;;;;3.80;1.67;;;;;;;11.05;75.74;98931.59;4872709;29;20072;-80
2022/09/20 02:28:16;;;;;;;1.88;1.13;;;;;;;10.97;76.00;98929.19;4869762;29;20140;-83
2022/09/20 02:30:48;;;;;;;1.65;1.10;;;;;;;10.95;75.84;98930.97;4878185;29;20052;-82
2022/09/20 02:33:33;;;;;;;1.77;0.88;;;;;;;10.98;75.98;98936.97;4878695;29;20047;-81
2022/09/20 02:36:22;;;;;;;2.10;0.90;;;;;;;10.73;75.67;98897.66;4875537;29;20049;-81
2022/09/20 02:39:18;;;;;;;3.45;1.55;;;;;;;11.10;75.82;98946.22;4891210;29;20179;-81
2022/09/20 02:41:54;;;;;;;5.40;1.30;;;;;;;11.14;75.98;98947.84;4877466;29;20045;-80
2022/09/20 02:44:29;;;;;;;5.63;1.05;;;;;;;11.18;75.89;98947.75;4892889;29;20060;-81
2022/09/20 02:47:34;;;;;;;4.68;2.13;;;;;;;11.02;75.87;98926.47;4885705;29;20049;-80
2022/09/20 02:50:03;;;;;;;4.10;1.27;;;;;;;11.25;75.90;98959.75;4878695;29;20049;-83
2022/09/20 02:53:04;;;;;;;3.13;1.13;;;;;;;11.26;75.68;98966.66;4874965;29;20545;-83
2022/09/20 02:55:55;;;;;;;4.00;1.10;;;;;;;11.28;75.63;98983.97;4874065;29;20131;-82
2022/09/20 02:58:49;;;;;;;1.13;0.90;;;;;;;11.32;75.71;98981.28;4873205;29;20086;-81
2022/09/20 03:01:24;;;;;;;2.25;1.20;;;;;;;11.33;75.37;98983.00;4889830;29;20040;-83
2022/09/20 03:04:05;;;;;;;4.88;1.13;;;;;;;11.33;75.36;98994.28;4885763;29;20089;-82
2022/09/20 03:06:34;;;;;;;1.27;1.00;;;;;;;11.34;75.39;99001.19;4875687;29;20061;-84
2022/09/20 03:09:10;;;;;;;1.73;1.10;;;;;;;11.36;75.25;98991.59;4871864;29;20068;-83
2022/09/20 03:11:39;;;;;;;1.50;1.20;;;;;;;11.38;75.63;99002.81;4876083;29;20053;-81
2022/09/20 03:14:35;;;;;;;8.32;1.30;;;;;;;11.39;75.35;99003.69;4856457;29;20141;-81
2022/09/20 03:17:21;;;;;;;2.20;1.27;;;;;;;11.39;75.20;99006.28;4872258;29;20049;-83
2022/09/20 03:20:06;;;;;;;1.20;1.10;;;;;;;11.36;75.06;99009.84;4858024;29;20041;-83
2022/09/20 03:23:11;;;;;;;2.53;1.38;;;;;;;11.37;75.20;99021.94;4875079;29;20052;-82
2022/09/20 03:26:07;;;;;;;3.42;1.10;;;;;;;11.39;74.99;99025.38;4871925;29;20101;-82
2022/09/20 03:28:48;;;;;;;2.22;1.15;;;;;;;11.35;74.77;99036.78;4855952;29;20539;-83
2022/09/20 03:31:23;;;;;;;3.30;1.17;;;;;;;11.30;74.97;99047.28;4874000;29;20532;-78
2022/09/20 03:33:59;;;;;;;2.30;1.15;;;;;;;11.30;74.98;99046.44;4873980;29;20056;-81
2022/09/20 03:36:57;;;;;;;3.60;1.15;;;;;;;11.18;75.00;99031.09;4887437;29;20060;-80
2022/09/20 03:39:46;;;;;;;3.55;1.10;;;;;;;11.09;74.99;99013.94;4881816;29;20533;-83
2022/09/20 03:42:22;;;;;;;2.45;1.27;;;;;;;11.32;75.12;99055.06;4877137;29;20052;-82
2022/09/20 03:45:26;;;;;;;1.70;1.40;;;;;;;11.44;74.95;99056.53;4889848;29;20041;-82
2022/09/20 03:48:41;;;;;;;1.25;0.95;;;;;;;11.45;74.87;99055.63;4859422;29;20055;-81
2022/09/20 03:59:24;;;;;;;3.47;1.40;;;;;;;11.24;74.75;99036.16;4865708;29;20060;-84
2022/09/20 04:02:21;;;;;;;1.40;1.20;;;;;;;11.55;74.75;99087.53;4854425;29;20053;-80
2022/09/20 04:04:57;;;;;;;1.23;1.13;;;;;;;11.44;75.03;99070.41;4873727;29;20095;-81
2022/09/20 04:07:57;;;;;;;2.65;1.08;;;;;;;11.55;74.87;99087.53;4875910;29;20037;-84
2022/09/20 04:10:28;;;;;;;3.45;1.30;;;;;;;11.68;74.72;99106.34;4878722;29;20784;-82
2022/09/20 04:13:13;;;;;;;1.83;1.10;;;;;;;11.71;74.64;99109.72;4858197;29;20052;-83
2022/09/20 04:15:58;;;;;;;4.60;1.23;;;;;;;11.75;74.42;99103.53;4872727;29;20051;-85
2022/09/20 04:18:51;;;;;;;2.25;1.10;;;;;;;11.77;74.12;99105.25;4874273;29;20038;-82
2022/09/20 04:21:22;;;;;;;1.83;1.10;;;;;;;11.79;74.37;99113.88;4879646;29;20056;-82
2022/09/20 04:24:37;;;;;;;5.53;1.17;;;;;;;11.80;74.18;99128.63;4887433;29;20048;-84
2022/09/20 04:27:25;;;;;;;1.42;1.10;;;;;;;11.81;74.31;99120.75;4869237;29;20147;-86
2022/09/20 04:30:28;;;;;;;1.88;1.10;;;;;;;11.85;74.02;99139.78;4883232;29;20139;-83
2022/09/20 04:33:19;;;;;;;2.50;1.17;;;;;;;11.89;73.92;99125.78;4862170;29;20159;-84
2022/09/20 04:39:08;;;;;;;2.67;1.27;;;;;;;12.08;73.71;99141.00;4878230;29;20045;-86
2022/09/20 04:41:58;;;;;;;1.38;1.10;;;;;;;12.16;73.76;99139.91;4879049;29;20402;-83
2022/09/20 04:45:32;;;;;;;1.48;1.10;;;;;;;12.23;73.46;99147.56;4868963;29;20049;-85
2022/09/20 04:48:41;;;;;;;2.55;1.15;;;;;;;12.03;73.21;99102.84;4860553;29;20045;-83
2022/09/20 04:51:44;;;;;;;2.65;1.20;;;;;;;12.22;73.13;99144.13;4863232;29;20053;-85
2022/09/20 04:54:47;;;;;;;2.53;1.20;;;;;;;12.40;72.96;99158.41;4872415;29;20200;-86
2022/09/20 04:57:58;;;;;;;5.53;1.50;;;;;;;12.49;72.99;99133.81;4901947;29;20112;-86
2022/09/20 05:00:48;;;;;;;5.95;1.10;;;;;;;12.32;72.76;99082.97;4868364;29;20055;-88
2022/09/20 05:04:09;;;;;;;3.33;1.42;;;;;;;12.92;71.84;99173.53;4914556;29;20069;-84
2022/09/20 05:06:57;;;;;;;1.25;1.00;;;;;;;12.72;71.94;99158.44;4871270;29;20077;-80
2022/09/20 05:09:27;;;;;;;1.88;1.33;;;;;;;12.75;71.66;99185.31;4877201;29;20065;-81
2022/09/20 05:12:01;;;;;;;1.40;1.10;;;;;;;12.72;71.90;99188.00;4897441;29;20052;-81
2022/09/20 05:14:36;;;;;;;1.58;1.05;;;;;;;12.61;71.79;99158.72;4897005;29;20029;-83
2022/09/20 05:17:19;;;;;;;6.82;1.17;;;;;;;12.83;71.53;99187.72;4905153;29;20069;-84
2022/09/20 05:20:03;;;;;;;1.92;1.30;;;;;;;12.90;71.66;99186.66;4886614;29;20041;-82
2022/09/20 05:22:53;;;;;;;4.40;1.45;;;;;;;12.91;71.35;99190.94;4866934;29;20048;-81
2022/09/20 05:25:50;;;;;;;2.42;1.20;;;;;;;12.98;71.15;99206.44;4881606;29;20041;-84
2022/09/20 05:28:48;;;;;;;1.98;1.20;;;;;;;12.85;70.66;99209.41;4888525;29;20037;-83
2022/09/20 05:31:27;;;;;;;1.30;1.08;;;;;;;12.77;70.95;99206.16;4885143;29;20048;-81
2022/09/20 05:34:21;;;;;;;12.57;2.67;;;;;;;12.78;71.13;99207.88;4885172;29;20036;-82
2022/09/20 05:36:55;;;;;;;4.47;1.55;;;;;;;12.78;71.17;99202.66;4900913;29;20057;-81
2022/09/20 05:39:30;;;;;;;4.32;1.20;;;;;;;12.96;70.88;99216.94;4893654;29;20549;-82
2022/09/20 05:42:27;;;;;;;1.38;1.27;;;;;;;12.89;70.95;99221.50;4872959;29;20112;-82
2022/09/20 05:45:57;;;;;;;4.95;1.38;;;;;;;13.21;71.27;99226.72;4873348;29;20125;-82
2022/09/20 05:48:35;;;;;;;3.92;1.38;;;;;;;14.60;70.79;99226.72;4873597;29;20060;-83
2022/09/20 05:51:26;;;;;;;2.73;1.40;;;;;;;14.78;69.34;99227.91;4874081;29;20048;-83
2022/09/20 05:54:31;;;;;;;3.63;1.50;;;;;;;14.45;68.90;99230.72;4888688;29;20041;-82
2022/09/20 05:57:06;;;;;;;3.10;1.33;;;;;;;14.71;69.35;99222.00;4886216;29;20457;-81
2022/09/20 05:59:50;;;;;;;2.60;1.60;;;;;;;14.98;68.07;99219.31;4871368;29;20078;-80
2022/09/20 06:02:53;;;;;;;2.40;1.50;;;;;;;14.71;67.72;99234.25;4869999;29;20037;-81
2022/09/20 06:05:57;;;;;;;2.75;1.98;;;;;;;14.56;67.83;99246.94;4874127;29;20061;-81
2022/09/20 06:09:01;;;;;;;2.20;1.75;;;;;;;14.40;67.54;99240.50;4874992;29;20049;-81
2022/09/20 06:11:46;;;;;;;3.80;1.60;;;;;;;14.35;67.55;99252.88;4889826;29;20100;-83
2022/09/20 06:14:12;;;;;;;1.75;1.20;;;;;;;14.32;67.78;99256.44;4892901;29;20505;-83
2022/09/20 06:16:51;;;;;;;2.80;1.38;;;;;;;14.40;67.44;99249.22;4875220;29;20135;-82
2022/09/20 06:19:46;;;;;;;1.73;1.10;;;;;;;14.82;67.08;99260.91;4878011;29;20487;-79
2022/09/20 06:22:23;;;;;;;3.30;1.40;;;;;;;15.31;67.30;99252.19;4876186;29;20052;-84
2022/09/20 06:25:00;;;;;;;4.35;1.20;;;;;;;15.75;66.21;99269.78;4873428;29;20047;-84
2022/09/20 06:27:39;;;;;;;2.03;1.20;;;;;;;16.08;65.48;99262.38;4876352;29;20048;-83
2022/09/20 06:30:14;;;;;;;3.03;1.42;;;;;;;15.95;64.82;99261.16;4874299;29;20044;-83
2022/09/20 06:33:05;;;;;;;2.72;1.17;;;;;;;15.73;64.18;99267.19;4861065;29;20718;-80
2022/09/20 06:35:37;;;;;;;3.15;1.25;;;;;;;15.52;64.23;99284.63;4893529;29;20553;-83
2022/09/20 06:43:47;;;;;;;1.90;1.17;;;;;;;15.06;64.18;99269.66;4874026;29;20045;-83
2022/09/20 06:46:14;;;;;;;1.77;1.20;;;;;;;14.93;63.71;99238.72;4875850;29;20139;-83
2022/09/20 06:48:41;;;;;;;2.13;1.15;;;;;;;15.25;63.89;99287.34;4877962;29;20045;-81
2022/09/20 06:51:11;;;;;;;2.28;1.40;;;;;;;15.29;64.19;99260.13;4890579;29;20523;-82
2022/09/20 06:53:39;;;;;;;2.25;1.13;;;;;;;16.33;64.13;99263.16;4889084;29;20049;-83
2022/09/20 06:56:15;;;;;;;6.65;1.67;;;;;;;18.56;63.79;99287.31;4871372;29;20072;-83
2022/09/20 06:58:41;;;;;;;2.95;1.40;;;;;;;19.64;60.96;99253.63;4878966;29;20056;-84
2022/09/20 07:01:07;;;;;;;2.60;1.30;;;;;;;19.95;58.29;99273.06;4874220;29;20181;-86
2022/09/20 07:03:33;;;;;;;2.80;1.20;;;;;;;21.15;57.62;99270.50;4889795;29;20144;-81
2022/09/20 07:05:59;;;;;;;2.90;1.20;;;;;;;21.19;54.08;99257.94;4890816;29;20143;-82
2022/09/20 07:08:26;;;;;;;2.95;1.02;;;;;;;20.67;52.68;99305.03;4891952;29;20048;-82
2022/09/20 07:10:52;;;;;;;5.25;1.00;;;;;;;19.51;53.01;99307.06;4874539;29;20045;-84
2022/09/20 07:13:19;;;;;;;2.88;1.40;;;;;;;18.95;53.97;99307.31;4874517;29;20085;-85
2022/09/20 07:15:45;;;;;;;2.70;1.20;;;;;;;18.71;54.13;99321.72;4875274;29;20046;-83
2022/09/20 07:18:11;;;;;;;2.28;1.30;;;;;;;18.38;53.64;99301.41;4895871;29;20049;-85
2022/09/20 07:20:38;;;;;;;3.13;1.00;;;;;;;17.84;53.53;99263.56;4887002;29;20049;-82
2022/09/20 07:23:05;;;;;;;2.75;1.10;;;;;;;17.46;54.26;99264.41;4861783;29;20420;-84
2022/09/20 07:25:31;;;;;;;3.67;1.00;;;;;;;16.86;54.73;99218.00;4864239;29;20389;-84
2022/09/20 07:27:57;;;;;;;4.63;1.30;;;;;;;17.00;55.02;99263.84;4865027;29;20052;-86
2022/09/20 07:30:23;;;;;;;3.88;1.20;;;;;;;17.20;54.91;99327.81;4879762;29;20066;-83
2022/09/20 07:32:49;;;;;;;2.47;1.10;;;;;;;16.68;55.37;99281.81;4892196;29;20053;-83
2022/09/20 07:35:15;;;;;;;2.40;1.10;;;;;;;16.89;55.76;99344.88;4904211;29;20060;-82
2022/09/20 07:37:44;;;;;;;2.53;1.10;;;;;;;16.61;55.48;99339.00;4875342;29;20413;-85
2022/09/20 07:40:10;;;;;;;2.13;1.20;;;;;;;16.01;55.59;99302.91;4874365;29;20425;-84
2022/09/20 07:42:37;;;;;;;3.40;1.15;;;;;;;15.82;56.22;99319.31;4888772;29;20053;-83
2022/09/20 07:45:06;;;;;;;1.23;1.10;;;;;;;15.92;57.04;99350.47;4888202;29;20066;-83
2022/09/20 07:47:34;;;;;;;1.75;1.27;;;;;;;15.51;57.28;99311.75;4872078;29;20044;-86
2022/09/20 07:50:00;;;;;;;3.08;1.25;;;;;;;15.74;57.48;99324.00;4874714;29;20053;-83
2022/09/20 07:52:26;;;;;;;1.23;1.10;;;;;;;15.68;57.47;99323.38;4873247;29;20044;-83
2022/09/20 07:55:00;;;;;;;3.42;1.73;;;;;;;15.61;57.53;99328.84;4877118;29;20045;-84
2022/09/20 07:57:36;;;;;;;2.80;1.25;;;;;;;15.48;58.33;99288.25;4897911;29;20072;-82
2022/09/20 08:00:11;;;;;;;1.80;1.30;;;;;;;15.94;58.19;99354.75;4887564;29;20068;-80
2022/09/20 08:02:59;;;;;;;2.72;1.05;;;;;;;15.94;57.86;99346.88;4866746;29;20053;-80
2022/09/20 08:05:26;;;;;;;1.75;1.05;;;;;;;15.93;57.40;99358.28;4863476;29;20116;-83
2022/09/20 08:07:54;;;;;;;1.92;1.10;;;;;;;15.79;57.79;99352.66;4879890;29;20267;-81
2022/09/20 08:10:20;;;;;;;2.35;1.60;;;;;;;15.40;58.01;99296.41;4880828;29;20049;-84
2022/09/20 08:12:47;;;;;;;2.33;1.20;;;;;;;15.69;58.50;99318.06;4875264;29;20121;-81
2022/09/20 08:15:15;;;;;;;4.38;1.25;;;;;;;16.31;58.17;99357.72;4881155;29;20053;-81
2022/09/20 08:18:13;;;;;;;4.28;1.33;;;;;;;17.12;58.51;99328.16;4880866;29;20049;-85
2022/09/20 08:20:48;;;;;;;3.15;1.20;;;;;;;18.16;57.45;99320.88;4874816;29;20398;-82
2022/09/20 08:23:17;;;;;;;2.10;1.08;;;;;;;18.70;55.11;99357.78;4879886;29;20048;-82
2022/09/20 08:25:47;;;;;;;3.83;1.27;;;;;;;18.45;54.67;99374.78;4876473;29;20421;-83
2022/09/20 08:28:25;;;;;;;2.05;1.00;;;;;;;18.93;55.01;99375.06;4863938;29;20520;-84
2022/09/20 08:31:11;;;;;;;3.17;1.30;;;;;;;21.10;54.76;99364.28;4884425;29;20516;-83
2022/09/20 08:33:39;;;;;;;2.33;1.20;;;;;;;22.51;52.97;99314.06;4894483;29;20555;-83
2022/09/20 08:36:06;;;;;;;3.90;1.13;;;;;;;24.44;49.18;99346.75;4879354;29;20053;-82
2022/09/20 08:38:34;;;;;;;4.82;1.25;;;;;;;25.24;47.49;99357.66;4879476;29;20093;-83
2022/09/20 08:41:10;;;;;;;4.40;1.20;;;;;;;24.09;44.93;99328.06;4894827;29;20049;-83
2022/09/20 08:43:50;;;;;;;1.80;1.17;;;;;;;23.41;46.00;99374.38;4879456;29;20044;-83
2022/09/20 08:46:21;;;;;;;2.10;1.17;;;;;;;22.68;44.39;99352.69;4878858;29;20047;-83
2022/09/20 08:48:48;;;;;;;2.13;1.30;;;;;;;21.93;46.15;99348.66;4876795;29;20413;-80
2022/09/20 08:51:15;;;;;;;9.75;1.67;;;;;;;22.42;46.03;99355.28;4888374;29;20048;-81
2022/09/20 08:53:51;;;;;;;2.80;1.13;;;;;;;23.67;44.80;99363.72;4896155;29;20025;-82
2022/09/20 08:56:19;;;;;;;3.25;1.40;;;;;;;25.95;44.26;99354.78;4879955;29;20045;-81
2022/09/20 08:58:45;;;;;;;1.88;1.35;;;;;;;26.95;41.49;99352.91;4874840;29;20592;-83
2022/09/20 09:01:23;;;;;;;2.72;1.20;;;;;;;27.81;38.23;99349.16;4867959;29;20043;-86
2022/09/20 09:03:51;;;;;;;2.28;1.20;;;;;;;27.78;38.78;99320.03;4880382;29;20048;-82
2022/09/20 09:06:22;;;;;;;4.95;1.13;;;;;;;28.55;36.60;99347.03;4857049;29;20087;-81
2022/09/20 09:08:52;;;;;;;1.65;1.20;;;;;;;28.01;36.94;99349.19;4877812;29;20112;-82
2022/09/20 09:11:31;;;;;;;1.85;1.40;;;;;;;27.77;36.59;99361.09;4878155;29;20133;-83
2022/09/20 09:14:46;;;;;;;3.63;1.30;;;;;;;28.48;36.25;99368.16;4890148;29;20052;-84
2022/09/20 09:17:40;;;;;;;2.50;1.33;;;;;;;28.19;35.69;99371.66;4875767;29;20045;-86
2022/09/20 09:26:26;;;;;;;;;;;;;;;;;;;;;
2022/09/20 09:30:31;;;;;;;2.85;1.23;;;;;;;27.65;38.01;99347.84;4872200;29;20185;-85
2022/09/20 09:34:06;;;;;;;1.00;0.90;;;;;;;28.77;36.36;99312.97;4843820;29;20049;-91
2022/09/20 09:37:23;;;;;;;2.20;0.90;;;;;;;29.98;35.46;99358.72;4856958;29;20049;-90
2022/09/20 09:40:33;;;;;;;1.10;1.00;;;;;;;29.66;32.40;99391.28;4873980;29;20065;-90
2022/09/20 09:44:20;;;;;;;2.25;0.98;;;;;;;29.25;33.42;99399.56;4839980;29;20179;-91
2022/09/20 09:47:30;;;;;;;5.80;1.17;;;;;;;27.44;34.46;99406.59;4831494;29;20220;-85
2022/09/20 09:50:32;;;;;;;1.52;1.08;;;;;;;26.70;34.86;99405.63;4821357;29;20556;-85
2022/09/20 09:53:16;;;;;;;1.30;1.20;;;;;;;25.70;35.61;99366.56;4836297;29;20528;-86
2022/09/20 09:56:14;;;;;;;8.35;1.52;;;;;;;26.74;36.34;99412.41;4839932;29;20049;-83
2022/09/20 09:59:01;;;;;;;1.95;1.25;;;;;;;28.54;34.60;99409.56;4838959;29;20049;-83
2022/09/20 10:01:49;;;;;;;2.85;1.10;;;;;;;28.64;34.23;99412.25;4855162;29;20045;-85
2022/09/20 10:04:37;;;;;;;1.38;0.90;;;;;;;29.59;33.75;99415.16;4844413;29;20113;-87
2022/09/20 10:07:18;;;;;;;4.13;1.23;;;;;;;28.60;33.15;99392.97;4865407;29;20120;-81
2022/09/20 10:09:52;;;;;;;1.27;0.98;;;;;;;27.22;33.72;99434.31;4845660;29;20053;-83
2022/09/20 10:12:44;;;;;;;3.35;1.38;;;;;;;25.53;35.62;99437.13;4849617;29;20497;-82
2022/09/20 10:15:28;;;;;;;2.60;1.20;;;;;;;24.49;36.24;99436.78;4872221;29;20414;-81
2022/09/20 10:18:19;;;;;;;1.92;0.95;;;;;;;23.23;37.31;99449.94;4880400;29;20158;-81
2022/09/20 10:21:07;;;;;;;7.45;1.40;;;;;;;22.31;38.33;99454.94;4877834;29;20130;-82
2022/09/20 10:23:56;;;;;;;3.17;1.30;;;;;;;21.87;39.30;99462.91;4884228;29;20490;-80
2022/09/20 10:27:02;;;;;;;6.25;1.60;;;;;;;21.42;40.32;99456.75;4879860;29;20033;-82
2022/09/20 10:30:01;;;;;;;3.63;1.35;;;;;;;21.04;41.42;99471.28;4863954;29;20068;-83
2022/09/20 10:32:48;;;;;;;2.42;1.30;;;;;;;20.68;41.72;99467.97;4895691;29;20052;-82
2022/09/20 10:35:32;;;;;;;2.78;1.23;;;;;;;20.36;42.22;99478.56;4882589;29;20052;-85
2022/09/20 10:38:07;;;;;;;3.80;1.08;;;;;;;20.01;42.82;99468.97;4897815;29;20068;-83
2022/09/20 10:44:13;;;;;;;3.30;1.20;;;;;;;19.29;44.78;99481.44;4888850;29;20045;-83
2022/09/20 10:46:51;;;;;;;4.35;1.27;;;;;;;19.19;44.83;99485.47;4882704;29;20098;-81
2022/09/20 10:49:52;;;;;;;2.42;1.30;;;;;;;19.12;45.12;99492.81;4872564;29;20048;-80
2022/09/20 10:52:54;;;;;;;2.22;1.27;;;;;;;18.77;45.58;99458.47;4898699;29;20130;-80
2022/09/20 10:56:14;;;;;;;3.65;1.17;;;;;;;18.73;46.55;99499.94;4917029;29;20066;-83
2022/09/20 10:58:47;;;;;;;3.13;1.20;;;;;;;18.59;47.16;99507.59;4889047;29;20214;-81
2022/09/20 11:01:35;;;;;;;5.30;1.60;;;;;;;18.54;47.16;99523.63;4878751;29;20052;-80
2022/09/20 11:04:38;;;;;;;2.75;1.27;;;;;;;18.44;47.78;99519.69;4878950;29;20049;-81
2022/09/20 11:07:18;;;;;;;2.20;1.25;;;;;;;18.03;47.69;99475.91;4877378;29;20078;-82
2022/09/20 11:09:54;;;;;;;6.28;1.30;;;;;;;18.04;47.94;99539.00;4883674;29;20045;-83
2022/09/20 11:13:01;;;;;;;3.17;1.30;;;;;;;17.45;49.37;99509.03;4876635;29;20068;-81
2022/09/20 11:15:47;;;;;;;5.95;1.83;;;;;;;17.52;49.76;99543.88;4889466;29;20052;-84
2022/09/20 11:18:46;;;;;;;2.13;1.58;;;;;;;17.37;49.86;99538.31;4862149;29;20101;-84
2022/09/20 11:21:26;;;;;;;3.95;1.40;;;;;;;17.08;50.21;99531.59;4883080;29;20052;-83
2022/09/20 11:23:55;;;;;;;3.70;1.42;;;;;;;16.99;50.33;99535.47;4896541;29;20067;-84
2022/09/20 11:26:26;;;;;;;5.53;1.95;;;;;;;16.49;51.01;99508.41;4881825;29;20056;-82
2022/09/20 11:29:02;;;;;;;4.00;1.60;;;;;;;16.49;51.40;99547.81;4893970;29;20070;-81
2022/09/20 11:31:45;;;;;;;4.90;1.48;;;;;;;16.44;51.61;99568.13;4875244;29;20805;-82
2022/09/20 11:34:27;;;;;;;2.95;1.50;;;;;;;16.16;52.16;99563.91;4866204;29;20099;-81
2022/09/20 11:37:02;;;;;;;3.00;1.80;;;;;;;16.07;52.49;99582.59;4856562;29;20049;-83
2022/09/20 11:39:45;;;;;;;8.43;1.77;;;;;;;15.94;52.59;99584.78;4877303;29;20045;-86
2022/09/20 11:42:25;;;;;;;3.72;1.60;;;;;;;15.57;53.27;99550.13;4880197;29;20513;-83
2022/09/20 11:44:53;;;;;;;2.90;1.80;;;;;;;15.57;53.59;99560.63;4875018;29;20091;-83
2022/09/20 11:47:53;;;;;;;4.50;1.70;;;;;;;15.74;53.90;99582.81;4861036;29;20037;-81
2022/09/20 11:51:01;;;;;;;2.42;1.50;;;;;;;15.66;54.31;99585.72;4874295;29;20071;-84
2022/09/20 11:53:36;;;;;;;3.92;1.70;;;;;;;15.63;54.33;99594.50;4880376;29;20413;-83
2022/09/20 11:56:31;;;;;;;2.22;1.50;;;;;;;15.60;54.48;99594.59;4889231;29;20096;-84
2022/09/20 11:59:00;;;;;;;4.38;1.58;;;;;;;15.58;55.05;99588.56;4884769;29;20093;-81
2022/09/20 12:01:33;;;;;;;3.67;1.40;;;;;;;15.67;54.81;99597.88;4886148;29;20631;-82
2022/09/20 12:04:11;;;;;;;6.15;1.60;;;;;;;15.55;54.94;99567.72;4895773;29;20045;-80
2022/09/20 12:06:41;;;;;;;2.90;1.50;;;;;;;15.42;54.76;99561.13;4881024;29;20057;-83
2022/09/20 12:09:29;;;;;;;5.95;1.52;;;;;;;15.50;55.34;99593.22;4854947;29;20064;-82
2022/09/20 12:11:56;;;;;;;4.28;1.63;;;;;;;15.09;55.19;99556.91;4877872;29;20045;-83
2022/09/20 12:14:26;;;;;;;4.45;1.60;;;;;;;15.23;55.29;99577.47;4863242;29;20128;-83
2022/09/20 12:16:55;;;;;;;4.50;1.90;;;;;;;15.21;55.53;99579.25;4845712;29;20050;-79
2022/09/20 12:19:35;;;;;;;5.88;1.60;;;;;;;15.39;55.66;99603.16;4867533;29;20041;-79
2022/09/20 12:22:04;;;;;;;4.22;1.63;;;;;;;15.43;55.92;99600.44;4882293;29;20049;-83
2022/09/20 12:24:33;;;;;;;4.65;1.60;;;;;;;15.40;55.62;99581.28;4882009;29;20049;-81
2022/09/20 12:27:18;;;;;;;3.85;1.70;;;;;;;15.35;55.78;99565.72;4886030;29;20048;-83
2022/09/20 12:29:53;;;;;;;2.63;1.85;;;;;;;15.66;55.21;99596.19;4887243;29;20041;-80
2022/09/20 12:32:39;;;;;;;2.67;1.50;;;;;;;15.61;55.19;99585.00;4892842;29;20049;-81
2022/09/20 12:35:35;;;;;;;4.13;1.63;;;;;;;15.66;55.25;99601.44;4892967;29;20143;-84
2022/09/20 12:38:24;;;;;;;2.65;1.60;;;;;;;15.61;55.67;99604.19;4898768;29;20076;-83
2022/09/20 12:41:15;;;;;;;2.88;1.55;;;;;;;15.27;55.41;99562.47;4881918;29;20072;-84
2022/09/20 12:43:56;;;;;;;2.08;1.55;;;;;;;15.66;55.53;99617.19;4881676;29;20104;-83
2022/09/20 12:46:57;;;;;;;3.38;1.60;;;;;;;15.63;55.46;99610.25;4871446;29;20049;-84
2022/09/20 12:53:15;;;;;;;3.33;2.00;;;;;;;15.44;55.61;99596.03;4873963;29;20098;-82
2022/09/20 12:55:50;;;;;;;3.42;1.50;;;;;;;15.19;55.57;99587.19;4887725;29;20087;-80
2022/09/20 12:58:23;;;;;;;4.30;1.73;;;;;;;14.91;56.17;99571.44;4873223;29;20060;-85
2022/09/20 13:00:58;;;;;;;4.88;1.60;;;;;;;15.05;56.46;99610.31;4875240;29;20139;-82
2022/09/20 13:03:36;;;;;;;3.65;1.52;;;;;;;14.83;56.38;99590.00;4875674;29;20068;-86
2022/09/20 13:06:21;;;;;;;2.80;1.65;;;;;;;14.88;56.81;99608.22;4887048;29;20116;-80
2022/09/20 13:09:03;;;;;;;2.58;1.88;;;;;;;14.78;56.96;99604.16;4871635;29;20205;-81
2022/09/20 13:12:00;;;;;;;8.48;2.30;;;;;;;14.75;57.33;99605.94;4858062;29;20066;-84
2022/09/20 13:14:32;;;;;;;3.45;1.42;;;;;;;14.75;57.16;99613.81;4872102;29;20045;-84
2022/09/20 13:28:33;;;;;;;5.93;2.03;;;;;;;14.74;57.35;99630.44;4863062;29;20144;-81